Time;durP1;ratioP1;P1;durP2;ratioP2;P2;SDS_P1;SDS_P2;PMS_P1;PMS_P2;Temp;Humidity;BMP_temperature;BMP_pressure;BME280_temperature;BME280_humidity;BME280_pressure;Samples;Min_cycle;Max_cycle;Signal;HPM_P1;HPM_P2
2022/11/24 00:01:18;;;;;;;9.53;4.73;;;2.40;1.00;;;;;;5013427;28;20182;-81
2022/11/24 00:03:46;;;;;;;8.67;5.00;;;2.40;1.00;;;;;;5030397;28;21050;-79
2022/11/24 00:06:14;;;;;;;6.07;4.50;;;2.40;99.90;;;;;;5012847;28;20243;-78
2022/11/24 00:08:41;;;;;;;7.67;4.50;;;2.50;99.90;;;;;;5015372;28;20608;-81
2022/11/24 00:11:09;;;;;;;8.17;4.87;;;2.60;99.90;;;;;;5015347;28;20234;-78
2022/11/24 00:13:37;;;;;;;8.10;4.53;;;2.60;99.90;;;;;;5016005;28;20188;-80
2022/11/24 00:16:10;;;;;;;9.17;4.60;;;2.60;99.90;;;;;;5015209;28;20223;-79
2022/11/24 00:18:37;;;;;;;9.53;4.20;;;2.60;99.90;;;;;;5016483;28;20182;-81
2022/11/24 00:21:03;;;;;;;5.70;4.17;;;2.60;99.90;;;;;;5031089;28;20724;-78
2022/11/24 00:23:28;;;;;;;7.90;4.70;;;2.70;99.90;;;;;;5016038;28;20272;-80
2022/11/24 00:25:54;;;;;;;8.83;4.13;;;2.70;99.90;;;;;;5015196;28;20211;-81
2022/11/24 00:28:19;;;;;;;7.57;4.93;;;2.90;12.80;;;;;;5016243;28;20612;-81
2022/11/24 00:30:45;;;;;;;6.67;4.70;;;2.90;1.00;;;;;;5016932;28;20187;-79
2022/11/24 00:33:11;;;;;;;8.10;4.60;;;2.90;1.00;;;;;;5018060;28;20187;-81
2022/11/24 00:35:36;;;;;;;4.63;3.90;;;2.90;1.00;;;;;;5013136;28;20212;-79
2022/11/24 00:38:02;;;;;;;8.17;4.40;;;2.90;1.00;;;;;;5010550;28;20198;-79
2022/11/24 00:40:27;;;;;;;9.73;4.50;;;2.90;27.80;;;;;;5011858;28;20270;-79
2022/11/24 00:42:53;;;;;;;8.67;4.27;;;3.00;90.10;;;;;;5012116;28;20191;-79
2022/11/24 00:45:19;;;;;;;6.93;4.23;;;3.00;99.90;;;;;;5011457;28;20218;-80
2022/11/24 00:47:44;;;;;;;6.33;4.10;;;3.00;99.90;;;;;;5011799;28;20262;-80
2022/11/24 00:50:10;;;;;;;6.60;4.67;;;3.00;99.90;;;;;;5012501;28;20183;-79
2022/11/24 00:52:35;;;;;;;7.23;4.10;;;3.10;99.90;;;;;;5011408;28;20451;-81
2022/11/24 00:55:01;;;;;;;6.93;4.30;;;3.10;99.90;;;;;;5011199;28;20658;-79
2022/11/24 00:57:26;;;;;;;7.03;4.53;;;3.10;99.90;;;;;;5009912;28;20193;-79
2022/11/24 00:59:52;;;;;;;7.70;4.50;;;3.10;99.90;;;;;;5011434;28;20670;-81
2022/11/24 01:02:18;;;;;;;7.87;4.53;;;3.10;99.90;;;;;;5011946;28;20271;-80
2022/11/24 01:04:43;;;;;;;6.47;4.73;;;3.20;99.90;;;;;;5010160;28;20187;-79
2022/11/24 01:07:09;;;;;;;6.47;4.60;;;3.20;99.90;;;;;;5009589;28;20187;-80
2022/11/24 01:09:35;;;;;;;5.83;3.77;;;3.20;99.90;;;;;;5011633;28;20206;-79
2022/11/24 01:12:00;;;;;;;7.00;4.10;;;3.30;99.90;;;;;;5009416;28;20282;-80
2022/11/24 01:14:26;;;;;;;6.60;4.63;;;3.30;99.90;;;;;;5010557;28;20286;-79
2022/11/24 01:16:52;;;;;;;11.53;5.93;;;3.40;99.90;;;;;;5010989;28;20583;-79
2022/11/24 01:19:18;;;;;;;9.97;4.50;;;3.40;99.90;;;;;;5010647;28;20192;-80
2022/11/24 01:21:44;;;;;;;7.13;4.33;;;3.40;99.90;;;;;;5009437;28;20278;-81
2022/11/24 01:24:10;;;;;;;6.93;4.10;;;3.40;99.90;;;;;;5010959;28;20270;-80
2022/11/24 01:26:36;;;;;;;7.27;3.83;;;3.50;99.90;;;;;;5010084;28;20294;-79
2022/11/24 01:29:02;;;;;;;7.87;4.30;;;3.50;99.90;;;;;;5010148;28;20688;-80
2022/11/24 01:31:28;;;;;;;6.60;4.03;;;3.50;99.90;;;;;;5008323;28;20271;-80
2022/11/24 01:33:53;;;;;;;7.30;4.07;;;3.50;99.90;;;;;;5009234;28;20242;-79
2022/11/24 01:36:20;;;;;;;8.03;4.27;;;3.60;99.90;;;;;;5008197;28;20234;-79
2022/11/24 01:38:45;;;;;;;5.73;4.30;;;3.60;99.90;;;;;;5010263;28;20180;-80
2022/11/24 01:41:15;;;;;;;7.73;4.67;;;3.70;99.90;;;;;;5007740;28;20188;-80
2022/11/24 01:43:42;;;;;;;7.67;4.60;;;3.70;99.90;;;;;;5024535;28;20283;-79
2022/11/24 01:46:44;;;;;;;6.03;4.33;;;3.60;99.90;;;;;;5024373;28;20215;-82
2022/11/24 01:49:20;;;;;;;5.80;4.10;;;3.60;99.90;;;;;;4998234;28;20186;-80
2022/11/24 01:51:52;;;;;;;5.97;4.60;;;3.60;98.80;;;;;;5009392;28;20175;-81
2022/11/24 01:54:26;;;;;;;9.40;6.00;;;3.60;81.60;;;;;;5009194;28;20305;-80
2022/11/24 01:56:57;;;;;;;8.00;5.17;;;3.50;99.90;;;;;;5008811;28;20215;-81
2022/11/24 01:59:24;;;;;;;7.93;4.27;;;3.50;99.90;;;;;;5003750;22;20246;-81
2022/11/24 02:01:51;;;;;;;7.50;5.00;;;3.50;99.90;;;;;;4987133;28;20259;-80
2022/11/24 02:04:22;;;;;;;6.57;4.10;;;3.50;99.90;;;;;;4987176;28;20795;-84
2022/11/24 02:06:51;;;;;;;7.67;5.30;;;3.40;99.90;;;;;;4985828;28;20217;-81
2022/11/24 02:09:33;;;;;;;7.97;4.50;;;3.80;99.90;;;;;;4988211;28;20255;-81
2022/11/24 02:12:00;;;;;;;5.77;4.30;;;3.40;99.90;;;;;;4987558;28;20219;-82
2022/11/24 02:14:27;;;;;;;7.67;5.40;;;3.50;99.90;;;;;;4987958;28;20234;-82
2022/11/24 02:16:52;;;;;;;8.30;5.00;;;3.50;99.90;;;;;;5002112;28;20208;-81
2022/11/24 02:19:38;;;;;;;7.53;4.70;;;3.40;99.90;;;;;;4987339;28;20190;-83
2022/11/24 02:22:03;;;;;;;6.93;4.83;;;3.50;1.00;;;;;;4987029;28;20191;-83
2022/11/24 02:24:46;;;;;;;6.13;4.47;;;3.50;1.00;;;;;;4985644;28;20218;-79
2022/11/24 02:27:11;;;;;;;5.87;4.27;;;3.50;1.00;;;;;;4985916;28;20709;-79
2022/11/24 02:29:38;;;;;;;6.07;4.83;;;3.50;99.90;;;;;;4984863;28;20666;-79
2022/11/24 02:32:06;;;;;;;6.13;4.00;;;3.60;1.00;;;;;;5001053;28;20212;-81
2022/11/24 02:34:31;;;;;;;7.10;4.23;;;3.60;1.00;;;;;;5001626;28;20234;-78
2022/11/24 02:36:57;;;;;;;6.57;4.27;;;3.60;1.00;;;;;;4986341;28;20208;-79
2022/11/24 02:39:23;;;;;;;7.53;5.00;;;3.60;99.90;;;;;;4985281;28;20666;-80
2022/11/24 02:41:57;;;;;;;7.07;4.27;;;3.60;1.00;;;;;;4985583;28;20271;-79
2022/11/24 02:44:26;;;;;;;8.57;5.50;;;3.60;1.00;;;;;;4985725;28;20585;-79
2022/11/24 02:47:11;;;;;;;9.30;5.27;;;3.50;1.00;;;;;;4984829;28;20222;-79
2022/11/24 02:49:37;;;;;;;5.67;4.70;;;3.50;1.00;;;;;;4984895;28;20268;-81
2022/11/24 02:52:04;;;;;;;8.57;5.20;;;3.50;1.00;;;;;;4984244;28;20295;-82
2022/11/24 02:54:30;;;;;;;10.20;5.23;;;4.50;1.00;;;;;;4986033;28;20223;-83
2022/11/24 02:56:55;;;;;;;8.53;4.70;;;3.50;1.00;;;;;;4986146;28;20204;-79
2022/11/24 02:59:22;;;;;;;6.03;4.73;;;3.50;1.00;;;;;;4985631;28;21101;-79
2022/11/24 03:01:47;;;;;;;6.93;4.97;;;3.50;1.00;;;;;;4985923;28;20678;-79
2022/11/24 03:04:13;;;;;;;9.37;5.40;;;3.50;1.00;;;;;;5000929;28;20181;-82
2022/11/24 03:06:39;;;;;;;8.70;5.23;;;3.50;1.00;;;;;;4984768;28;20872;-80
2022/11/24 03:09:05;;;;;;;8.10;5.00;;;3.50;1.00;;;;;;4989258;28;20740;-78
2022/11/24 03:11:30;;;;;;;6.83;4.90;;;3.50;1.00;;;;;;4988118;28;20177;-83
2022/11/24 03:13:56;;;;;;;9.53;5.83;;;3.50;1.00;;;;;;4988247;28;20199;-78
2022/11/24 03:16:21;;;;;;;8.53;5.50;;;3.50;1.00;;;;;;4987722;28;20210;-81
2022/11/24 03:18:50;;;;;;;7.60;5.40;;;3.50;1.00;;;;;;4988667;28;20553;-78
2022/11/24 03:21:15;;;;;;;6.37;5.47;;;3.50;1.00;;;;;;4988166;28;20180;-79
2022/11/24 03:23:41;;;;;;;7.43;5.87;;;3.50;1.00;;;;;;4988437;28;20190;-79
2022/11/24 03:26:16;;;;;;;10.03;5.97;;;3.40;1.00;;;;;;4989023;28;20698;-79
2022/11/24 03:28:42;;;;;;;9.57;5.63;;;3.40;1.00;;;;;;4988208;28;20183;-83
2022/11/24 03:31:08;;;;;;;9.87;6.40;;;3.40;1.00;;;;;;4988419;28;20188;-78
2022/11/24 03:33:35;;;;;;;8.67;5.97;;;3.40;1.00;;;;;;4988045;28;20180;-80
2022/11/24 03:36:01;;;;;;;7.40;5.77;;;3.40;1.00;;;;;;4987968;28;20744;-80
2022/11/24 03:38:27;;;;;;;7.00;5.57;;;3.50;58.50;;;;;;4987893;28;20187;-79
2022/11/24 03:40:53;;;;;;;10.33;6.20;;;3.40;13.30;;;;;;4989027;28;20773;-81
2022/11/24 03:43:18;;;;;;;8.87;6.53;;;3.40;73.00;;;;;;4987760;28;20188;-78
2022/11/24 03:45:45;;;;;;;9.80;6.80;;;3.40;86.20;;;;;;4987748;28;21232;-80
2022/11/24 03:48:11;;;;;;;9.37;6.43;;;3.40;99.90;;;;;;4989303;28;20188;-80
2022/11/24 03:50:37;;;;;;;8.67;6.07;;;3.40;99.90;;;;;;4989015;28;20556;-78
2022/11/24 03:53:02;;;;;;;8.87;6.30;;;3.40;1.00;;;;;;4989381;28;20715;-80
2022/11/24 03:55:28;;;;;;;10.10;7.13;;;3.50;45.70;;;;;;4988669;28;20208;-82
2022/11/24 03:57:53;;;;;;;7.53;5.60;;;3.40;1.00;;;;;;5005674;22;20193;-82
2022/11/24 04:00:19;;;;;;;8.80;5.83;;;3.50;19.00;;;;;;4984365;28;21298;-82
2022/11/24 04:02:45;;;;;;;7.07;5.50;;;3.40;1.00;;;;;;4986765;28;20184;-81
2022/11/24 04:05:10;;;;;;;7.73;5.23;;;3.40;99.90;;;;;;4987093;28;20207;-80
2022/11/24 04:07:36;;;;;;;8.30;5.23;;;3.40;99.90;;;;;;4987398;28;20180;-78
2022/11/24 04:10:02;;;;;;;6.80;4.87;;;3.40;99.90;;;;;;4987485;28;20183;-80
2022/11/24 04:12:42;;;;;;;7.93;5.83;;;3.30;99.90;;;;;;4988376;28;20184;-81
2022/11/24 04:15:09;;;;;;;7.73;5.60;;;3.40;1.00;;;;;;4987047;28;20199;-80
2022/11/24 04:17:34;;;;;;;9.87;5.80;;;3.40;99.90;;;;;;4987115;28;20184;-78
2022/11/24 04:20:00;;;;;;;8.40;6.63;;;3.40;99.90;;;;;;4985905;28;20491;-79
2022/11/24 04:22:25;;;;;;;6.83;5.60;;;3.40;99.90;;;;;;4987269;28;20196;-81
2022/11/24 04:24:51;;;;;;;8.63;5.73;;;3.40;99.90;;;;;;4987054;28;20180;-79
2022/11/24 04:27:17;;;;;;;8.53;5.93;;;3.50;1.00;;;;;;4987498;28;20188;-80
2022/11/24 04:29:42;;;;;;;9.67;5.80;;;3.50;1.00;;;;;;4987849;28;20216;-81
2022/11/24 04:32:08;;;;;;;7.27;5.10;;;3.50;1.00;;;;;;4988725;28;20180;-78
2022/11/24 04:34:34;;;;;;;8.50;5.47;;;3.50;1.00;;;;;;4988212;28;20238;-80
2022/11/24 04:37:00;;;;;;;6.77;5.07;;;4.30;1.00;;;;;;4983747;28;20730;-77
2022/11/24 04:39:25;;;;;;;7.93;5.10;;;3.70;1.00;;;;;;4986038;28;20198;-80
2022/11/24 04:41:51;;;;;;;5.73;4.60;;;3.80;99.90;;;;;;4986302;28;20199;-79
2022/11/24 04:44:16;;;;;;;7.10;5.20;;;3.70;99.90;;;;;;4986740;28;20191;-81
2022/11/24 04:46:42;;;;;;;8.23;4.67;;;3.70;27.00;;;;;;5002230;28;20226;-81
2022/11/24 04:49:10;;;;;;;8.10;5.17;;;3.60;1.00;;;;;;4986852;28;20179;-81
2022/11/24 04:51:37;;;;;;;5.43;4.70;;;3.60;1.00;;;;;;4986119;28;20261;-81
2022/11/24 04:54:03;;;;;;;6.43;5.13;;;3.50;1.00;;;;;;4986974;28;20378;-81
2022/11/24 04:56:29;;;;;;;7.50;5.37;;;3.50;1.00;;;;;;5002165;28;20211;-82
2022/11/24 04:58:54;;;;;;;8.03;5.40;;;3.50;91.30;;;;;;4987675;28;20208;-81
2022/11/24 05:01:20;;;;;;;10.40;6.60;;;3.50;99.90;;;;;;4987408;28;20700;-80
2022/11/24 05:03:45;;;;;;;6.60;5.10;;;3.50;99.90;;;;;;4987546;28;20194;-81
2022/11/24 05:06:11;;;;;;;17.70;10.07;;;4.50;99.90;;;;;;4985985;28;20215;-81
2022/11/24 05:08:37;;;;;;;14.17;8.93;;;3.60;1.00;;;;;;4986055;28;20184;-81
2022/11/24 05:11:04;;;;;;;11.50;6.27;;;3.60;1.00;;;;;;4988049;28;20188;-79
2022/11/24 05:13:30;;;;;;;26.90;12.87;;;3.60;1.00;;;;;;4986862;28;20263;-81
2022/11/24 05:15:56;;;;;;;11.60;7.57;;;3.70;1.00;;;;;;4986771;28;20295;-82
2022/11/24 05:18:22;;;;;;;9.90;6.43;;;3.70;1.00;;;;;;4985561;28;20893;-80
2022/11/24 05:20:48;;;;;;;11.33;6.90;;;3.70;1.00;;;;;;4988011;28;20176;-80
2022/11/24 05:23:14;;;;;;;7.93;5.67;;;3.80;1.00;;;;;;4990980;28;20258;-79
2022/11/24 05:25:40;;;;;;;7.83;5.17;;;3.80;1.00;;;;;;4988575;28;20260;-81
2022/11/24 05:28:08;;;;;;;5.83;4.50;;;3.90;1.00;;;;;;4986673;28;20863;-79
2022/11/24 05:30:39;;;;;;;7.93;5.63;;;3.80;1.00;;;;;;5002071;28;20191;-82
2022/11/24 05:33:16;;;;;;;13.07;9.13;;;3.80;99.90;;;;;;4986379;28;20300;-79
2022/11/24 05:35:43;;;;;;;12.77;8.40;;;3.90;99.90;;;;;;4986299;28;20282;-80
2022/11/24 05:38:08;;;;;;;9.30;6.27;;;4.70;99.90;;;;;;4986984;28;20177;-79
2022/11/24 05:40:34;;;;;;;13.50;8.37;;;3.90;1.00;;;;;;5001986;28;20303;-82
2022/11/24 05:43:00;;;;;;;10.43;6.57;;;3.90;1.00;;;;;;4985616;28;20219;-78
2022/11/24 05:45:25;;;;;;;8.40;5.80;;;4.00;29.00;;;;;;4985393;28;20238;-78
2022/11/24 05:47:52;;;;;;;13.53;7.20;;;4.00;77.10;;;;;;4985366;28;20184;-81
2022/11/24 05:50:20;;;;;;;8.83;5.70;;;4.00;92.60;;;;;;4986766;28;20465;-80
2022/11/24 05:52:47;;;;;;;9.47;7.00;;;3.90;3.50;;;;;;5003245;28;20172;-78
2022/11/24 05:55:13;;;;;;;17.10;10.27;;;3.80;1.00;;;;;;4986341;28;20222;-83
2022/11/24 05:57:39;;;;;;;12.27;6.80;;;4.40;1.00;;;;;;4987400;28;20210;-81
2022/11/24 06:00:07;;;;;;;9.37;5.17;;;3.60;1.00;;;;;;4986670;28;20208;-80
2022/11/24 06:02:32;;;;;;;9.77;6.00;;;3.50;1.00;;;;;;4988567;28;20180;-80
2022/11/24 06:04:58;;;;;;;8.63;6.00;;;3.50;14.10;;;;;;4988838;28;20287;-82
2022/11/24 06:07:23;;;;;;;10.00;4.90;;;3.40;29.80;;;;;;4989254;28;20693;-79
2022/11/24 06:09:49;;;;;;;15.17;9.10;;;3.30;60.90;;;;;;4988959;28;20242;-80
2022/11/24 06:12:15;;;;;;;15.40;10.73;;;3.20;99.90;;;;;;4989262;28;20708;-80
2022/11/24 06:14:41;;;;;;;16.53;11.23;;;3.20;99.90;;;;;;4990538;28;20185;-80
2022/11/24 06:17:12;;;;;;;9.97;6.20;;;3.10;99.90;;;;;;4989046;28;20196;-79
2022/11/24 06:19:37;;;;;;;9.03;7.10;;;2.90;99.90;;;;;;4989897;28;20263;-80
2022/11/24 06:22:03;;;;;;;15.67;7.87;;;3.00;99.90;;;;;;4989372;28;20304;-81
2022/11/24 06:24:28;;;;;;;12.73;8.63;;;3.00;1.00;;;;;;4989054;28;20208;-80
2022/11/24 06:26:54;;;;;;;23.57;12.97;;;3.00;1.00;;;;;;4990052;28;20203;-79
2022/11/24 06:29:20;;;;;;;13.63;6.53;;;3.00;1.00;;;;;;4989749;28;20191;-81
2022/11/24 06:31:45;;;;;;;7.23;5.43;;;3.00;1.00;;;;;;4989357;28;20185;-81
2022/11/24 06:34:12;;;;;;;10.70;5.83;;;3.00;99.90;;;;;;4991974;28;20259;-81
2022/11/24 06:36:38;;;;;;;11.10;6.57;;;3.00;99.90;;;;;;4991423;28;20208;-80
2022/11/24 06:39:05;;;;;;;10.73;5.73;;;3.00;99.90;;;;;;4992720;28;20192;-81
2022/11/24 06:41:30;;;;;;;8.73;5.30;;;3.10;1.00;;;;;;5008020;28;20263;-82
2022/11/24 06:43:56;;;;;;;9.73;5.03;;;3.10;1.00;;;;;;5013278;28;20193;-81
2022/11/24 06:46:22;;;;;;;8.23;4.73;;;3.20;1.00;;;;;;4999619;28;20207;-80
2022/11/24 06:48:51;;;;;;;8.33;5.10;;;3.20;6.80;;;;;;4991312;28;20219;-79
2022/11/24 06:51:17;;;;;;;15.93;6.00;;;3.10;1.00;;;;;;5006421;28;20195;-80
2022/11/24 06:53:44;;;;;;;18.47;5.47;;;3.20;1.00;;;;;;4991147;28;20696;-81
2022/11/24 06:56:11;;;;;;;21.97;9.10;;;3.20;1.00;;;;;;4992238;28;20204;-78
2022/11/24 06:58:42;;;;;;;23.27;8.07;;;3.20;1.00;;;;;;5005117;28;20693;-81
2022/11/24 07:01:07;;;;;;;16.17;6.30;;;3.20;1.00;;;;;;4988307;28;20658;-79
2022/11/24 07:03:33;;;;;;;17.13;5.60;;;3.30;1.00;;;;;;4988494;28;20203;-79
2022/11/24 07:05:59;;;;;;;11.23;5.13;;;3.40;1.00;;;;;;4989498;28;20305;-80
2022/11/24 07:08:25;;;;;;;8.50;4.60;;;3.30;1.00;;;;;;4989926;28;20291;-78
2022/11/24 07:10:53;;;;;;;8.10;4.80;;;3.30;99.90;;;;;;4988897;28;20186;-81
2022/11/24 07:13:19;;;;;;;10.77;4.70;;;3.30;1.00;;;;;;4988839;28;20243;-80
2022/11/24 07:15:46;;;;;;;10.10;4.67;;;3.40;1.00;;;;;;4988448;28;20576;-78
2022/11/24 07:18:12;;;;;;;7.67;4.60;;;4.30;1.00;;;;;;4988934;28;20204;-81
2022/11/24 07:20:37;;;;;;;5.77;4.67;;;3.60;1.00;;;;;;5005224;28;20184;-80
2022/11/24 07:23:03;;;;;;;9.63;4.93;;;3.60;1.00;;;;;;4988371;28;20196;-80
2022/11/24 07:25:29;;;;;;;52.53;38.20;;;3.70;1.00;;;;;;4990435;28;20216;-80
2022/11/24 07:27:56;;;;;;;35.40;27.67;;;4.00;1.00;;;;;;4993039;28;20180;-80
2022/11/24 07:30:22;;;;;;;45.20;36.87;;;4.00;1.00;;;;;;4991586;28;20219;-79
2022/11/24 07:32:48;;;;;;;81.30;70.10;;;4.10;1.00;;;;;;4990254;28;20624;-79
2022/11/24 07:35:14;;;;;;;55.53;48.40;;;4.30;92.30;;;;;;4990996;28;20211;-80
2022/11/24 07:37:39;;;;;;;29.70;22.00;;;4.40;99.90;;;;;;4989647;28;20569;-80
2022/11/24 07:40:06;;;;;;;60.27;48.97;;;4.50;99.90;;;;;;4986371;28;20634;-79
2022/11/24 07:42:31;;;;;;;20.37;16.07;;;4.60;1.00;;;;;;4989402;28;20706;-80
2022/11/24 07:44:57;;;;;;;13.93;8.27;;;4.70;99.90;;;;;;4990203;28;20224;-80
2022/11/24 07:47:22;;;;;;;9.20;5.90;;;4.80;1.00;;;;;;4994523;28;20184;-80
2022/11/24 07:49:48;;;;;;;11.40;5.93;;;4.80;99.90;;;;;;4987338;28;20191;-81
2022/11/24 07:52:14;;;;;;;12.57;5.90;;;4.80;99.90;;;;;;4987713;28;20242;-81
2022/11/24 07:54:39;;;;;;;14.23;6.37;;;4.80;1.00;;;;;;4985263;28;20197;-78
2022/11/24 07:57:05;;;;;;;8.37;5.90;;;5.00;1.00;;;;;;4986484;28;20200;-80
2022/11/24 07:59:31;;;;;;;8.37;5.53;;;5.00;1.00;;;;;;4997588;28;20202;-79
2022/11/24 08:01:56;;;;;;;7.60;5.00;;;5.10;1.00;;;;;;4995622;28;20199;-79
2022/11/24 08:04:22;;;;;;;11.77;6.63;;;5.60;1.00;;;;;;4995973;28;20203;-80
2022/11/24 08:06:48;;;;;;;8.60;5.10;;;5.30;99.90;;;;;;4997897;28;20224;-79
2022/11/24 08:09:13;;;;;;;9.00;4.50;;;5.40;99.90;;;;;;4998609;28;20191;-79
2022/11/24 08:11:39;;;;;;;9.80;4.70;;;5.50;1.00;;;;;;5001424;28;20197;-80
2022/11/24 08:14:04;;;;;;;12.03;5.60;;;5.50;1.00;;;;;;4999495;28;20184;-79
2022/11/24 08:16:31;;;;;;;13.70;7.23;;;5.60;1.00;;;;;;5000378;28;20208;-79
2022/11/24 08:18:56;;;;;;;21.63;14.80;;;5.70;99.90;;;;;;4996890;28;20203;-81
2022/11/24 08:21:22;;;;;;;22.00;14.70;;;5.70;99.90;;;;;;5000371;28;20185;-80
2022/11/24 08:23:48;;;;;;;32.67;27.80;;;5.70;1.00;;;;;;4990597;28;20184;-80
2022/11/24 08:26:17;;;;;;;25.67;19.57;;;5.70;1.00;;;;;;4990023;28;20644;-78
2022/11/24 08:28:45;;;;;;;15.23;10.10;;;5.40;1.00;;;;;;4992863;28;20185;-80
2022/11/24 08:31:13;;;;;;;13.27;8.83;;;5.80;99.90;;;;;;4994240;28;20188;-81
2022/11/24 08:33:39;;;;;;;11.10;6.43;;;5.80;99.90;;;;;;5009736;28;20177;-79
2022/11/24 08:36:08;;;;;;;13.77;7.77;;;5.80;99.90;;;;;;4991255;28;20212;-80
2022/11/24 08:38:34;;;;;;;14.87;10.50;;;5.70;1.00;;;;;;4988994;28;20258;-79
2022/11/24 08:41:01;;;;;;;10.60;7.63;;;5.70;99.90;;;;;;4990804;28;20203;-78
2022/11/24 08:43:27;;;;;;;10.17;5.27;;;5.70;99.90;;;;;;4989977;28;20251;-80
2022/11/24 08:45:52;;;;;;;12.17;6.60;;;5.70;99.90;;;;;;4990804;28;20720;-80
2022/11/24 08:48:18;;;;;;;11.40;6.63;;;5.20;99.90;;;;;;4991103;28;20192;-78
2022/11/24 08:50:44;;;;;;;17.40;6.50;;;5.70;99.90;;;;;;4993008;28;20270;-79
2022/11/24 08:53:09;;;;;;;13.33;7.20;;;5.60;99.90;;;;;;4991820;28;20283;-79
2022/11/24 08:55:35;;;;;;;10.17;5.97;;;5.70;99.90;;;;;;4989965;28;20216;-79
2022/11/24 08:58:00;;;;;;;10.30;5.73;;;5.60;99.90;;;;;;4985822;28;20192;-80
2022/11/24 09:00:26;;;;;;;9.27;4.80;;;5.70;99.90;;;;;;4990938;28;20430;-80
2022/11/24 09:02:56;;;;;;;9.33;5.73;;;5.70;99.90;;;;;;4990047;28;20203;-80
2022/11/24 09:05:22;;;;;;;7.87;5.03;;;5.80;99.90;;;;;;4989776;28;20212;-80
2022/11/24 09:07:48;;;;;;;8.60;5.30;;;5.80;99.90;;;;;;4985877;28;20192;-79
2022/11/24 09:10:13;;;;;;;7.37;4.27;;;5.80;99.90;;;;;;4989968;28;20271;-80
2022/11/24 09:12:39;;;;;;;7.77;5.40;;;6.00;99.90;;;;;;4991766;28;20394;-80
2022/11/24 09:15:05;;;;;;;9.00;5.23;;;6.10;99.90;;;;;;4991658;28;20557;-80
2022/11/24 09:17:32;;;;;;;7.47;4.17;;;6.20;99.90;;;;;;4990225;28;20407;-81
2022/11/24 09:19:58;;;;;;;8.60;4.80;;;6.30;99.90;;;;;;4992573;28;20176;-80
2022/11/24 09:22:23;;;;;;;5.87;4.23;;;6.40;99.90;;;;;;4992374;28;20208;-80
2022/11/24 09:24:49;;;;;;;8.10;4.53;;;6.50;99.90;;;;;;4990865;28;20188;-80
2022/11/24 09:27:14;;;;;;;7.90;4.20;;;6.50;99.90;;;;;;4988545;28;20288;-78
2022/11/24 09:29:40;;;;;;;5.83;4.00;;;6.60;99.90;;;;;;4986202;28;20603;-79
2022/11/24 09:32:06;;;;;;;10.23;4.10;;;6.70;99.90;;;;;;4986912;28;20196;-84
2022/11/24 09:34:31;;;;;;;7.40;3.87;;;6.70;99.90;;;;;;4989489;28;20662;-79
2022/11/24 09:36:57;;;;;;;7.33;3.90;;;6.80;99.90;;;;;;4993124;28;20219;-80
2022/11/24 09:39:23;;;;;;;8.80;4.10;;;6.70;99.90;;;;;;4991064;28;20196;-78
2022/11/24 09:42:27;;;;;;;10.87;5.97;;;6.80;99.90;;;;;;4992785;28;20192;-78
2022/11/24 09:44:58;;;;;;;10.27;4.50;;;6.80;99.90;;;;;;4991459;28;20192;-77
2022/11/24 09:47:52;;;;;;;6.87;4.07;;;6.80;99.90;;;;;;4992545;28;20268;-78
2022/11/24 09:50:19;;;;;;;16.77;8.33;;;6.90;99.90;;;;;;4989666;28;20177;-79
2022/11/24 09:53:02;;;;;;;45.53;30.70;;;7.10;99.90;;;;;;4992520;28;20643;-79
2022/11/24 09:55:48;;;;;;;33.53;22.73;;;7.20;99.90;;;;;;4988976;28;20210;-78
2022/11/24 09:58:52;;;;;;;25.03;16.80;;;7.50;99.90;;;;;;4991508;28;20204;-79
2022/11/24 10:01:19;;;;;;;21.70;12.57;;;7.70;99.90;;;;;;4987278;28;20270;-79
2022/11/24 10:03:54;;;;;;;9.40;5.97;;;7.80;99.90;;;;;;4989497;28;20287;-79
2022/11/24 10:06:33;;;;;;;10.30;5.43;;;7.80;99.90;;;;;;4989522;28;20208;-79
2022/11/24 10:09:30;;;;;;;8.97;4.37;;;7.90;99.90;;;;;;4988476;28;20238;-80
2022/11/24 10:12:13;;;;;;;5.87;3.27;;;7.90;99.90;;;;;;4987170;28;20196;-78
2022/11/24 10:15:21;;;;;;;10.03;3.60;;;8.00;99.90;;;;;;4988216;28;20172;-78
2022/11/24 10:18:13;;;;;;;12.90;6.73;;;8.00;99.90;;;;;;4989929;28;20199;-77
2022/11/24 10:20:50;;;;;;;9.83;5.23;;;8.10;99.90;;;;;;4991058;28;20180;-78
2022/11/24 10:23:35;;;;;;;16.10;9.60;;;8.20;99.90;;;;;;4989961;28;20188;-78
2022/11/24 10:26:17;;;;;;;14.83;8.93;;;8.40;99.90;;;;;;4988392;28;20223;-77
2022/11/24 10:28:58;;;;;;;13.43;9.37;;;9.50;99.90;;;;;;4991047;28;20250;-78
2022/11/24 10:31:36;;;;;;;9.23;4.33;;;8.80;99.90;;;;;;4991320;28;20187;-80
2022/11/24 10:34:12;;;;;;;8.97;4.20;;;8.70;90.10;;;;;;4993887;28;20646;-79
2022/11/24 10:36:51;;;;;;;12.47;4.40;;;9.00;93.70;;;;;;4992956;28;20207;-79
2022/11/24 10:39:20;;;;;;;13.60;3.40;;;8.90;76.20;;;;;;4993342;28;20184;-79
2022/11/24 10:41:49;;;;;;;9.23;3.77;;;8.80;69.70;;;;;;4995087;28;20237;-79
2022/11/24 10:44:15;;;;;;;8.90;3.43;;;8.80;79.30;;;;;;4994585;28;20215;-80
2022/11/24 10:46:41;;;;;;;10.27;3.27;;;8.80;73.60;;;;;;4996178;28;20236;-78
2022/11/24 10:49:12;;;;;;;10.27;3.17;;;8.70;79.20;;;;;;4995492;28;20402;-80
2022/11/24 10:51:53;;;;;;;7.07;3.10;;;8.70;84.10;;;;;;4994457;28;20208;-79
2022/11/24 10:54:21;;;;;;;8.87;3.10;;;8.70;85.00;;;;;;4994147;28;20180;-80
2022/11/24 10:56:50;;;;;;;6.83;2.97;;;8.80;74.40;;;;;;4994709;28;20208;-79
2022/11/24 10:59:36;;;;;;;7.23;2.43;;;8.80;64.40;;;;;;4993937;28;20207;-78
2022/11/24 11:02:34;;;;;;;4.93;2.90;;;8.90;51.70;;;;;;4995621;28;20188;-79
2022/11/24 11:05:22;;;;;;;7.27;3.13;;;9.00;38.10;;;;;;4999903;28;20215;-78
2022/11/24 11:07:47;;;;;;;9.10;3.57;;;9.00;26.80;;;;;;4997787;28;20196;-79
2022/11/24 11:10:22;;;;;;;5.63;3.20;;;9.50;52.60;;;;;;4996695;28;20191;-79
2022/11/24 11:12:48;;;;;;;9.53;5.50;;;9.10;52.90;;;;;;4991643;28;20272;-79
2022/11/24 11:15:34;;;;;;;7.40;4.83;;;9.80;45.90;;;;;;4990344;28;20247;-79
2022/11/24 11:18:00;;;;;;;7.47;3.10;;;9.00;26.90;;;;;;4990271;28;20188;-80
2022/11/24 11:20:33;;;;;;;7.00;2.87;;;9.00;41.40;;;;;;4993237;28;20938;-77
2022/11/24 11:23:12;;;;;;;7.50;2.40;;;9.00;28.80;;;;;;4992421;28;20238;-80
2022/11/24 11:25:39;;;;;;;5.33;2.20;;;9.20;28.80;;;;;;4993338;28;20247;-78
2022/11/24 11:28:27;;;;;;;8.57;2.77;;;9.10;18.20;;;;;;4983839;28;20565;-79
2022/11/24 11:31:04;;;;;;;6.97;2.17;;;9.20;24.80;;;;;;4985920;28;20190;-81
2022/11/24 11:33:32;;;;;;;7.83;1.90;;;9.30;24.00;;;;;;4982468;28;20226;-79
2022/11/24 11:36:00;;;;;;;8.83;2.40;;;9.30;20.20;;;;;;4983497;28;20251;-79
2022/11/24 11:38:34;;;;;;;9.80;2.30;;;9.40;15.80;;;;;;4983452;28;20453;-79
2022/11/24 11:41:01;;;;;;;7.37;2.30;;;9.50;6.40;;;;;;4981697;28;20345;-80
2022/11/24 11:43:38;;;;;;;5.73;2.10;;;9.40;1.00;;;;;;4983208;28;20269;-79
2022/11/24 11:46:10;;;;;;;5.47;1.90;;;9.30;1.00;;;;;;4983583;28;20257;-81
2022/11/24 11:48:39;;;;;;;5.53;2.30;;;9.30;4.60;;;;;;4984913;28;20661;-78
2022/11/24 11:51:30;;;;;;;6.90;1.90;;;9.30;8.00;;;;;;4984922;28;20188;-77
2022/11/24 11:54:25;;;;;;;4.50;1.70;;;9.20;1.00;;;;;;4986043;28;20196;-81
2022/11/24 11:57:40;;;;;;;6.70;2.10;;;9.30;1.00;;;;;;4997824;28;20242;-78
2022/11/24 12:00:19;;;;;;;9.33;2.53;;;9.20;15.80;;;;;;4982592;28;20301;-77
2022/11/24 12:03:01;;;;;;;9.23;2.97;;;9.40;3.70;;;;;;4988494;28;20323;-81
2022/11/24 12:05:42;;;;;;;9.40;2.30;;;9.40;1.00;;;;;;4988651;28;20227;-82
2022/11/24 12:08:30;;;;;;;7.70;2.27;;;9.30;1.40;;;;;;4989759;28;20184;-81
2022/11/24 12:11:13;;;;;;;5.37;2.33;;;9.30;1.00;;;;;;4987869;28;20655;-82
2022/11/24 12:13:56;;;;;;;6.00;2.30;;;9.60;1.00;;;;;;4990676;28;20184;-81
2022/11/24 12:16:41;;;;;;;6.20;2.00;;;9.10;1.00;;;;;;4990924;28;20243;-81
2022/11/24 12:19:30;;;;;;;9.23;2.40;;;9.00;7.60;;;;;;4993543;28;20219;-80
2022/11/24 12:21:59;;;;;;;7.97;2.53;;;9.10;1.00;;;;;;4990279;28;20188;-81
2022/11/24 12:24:43;;;;;;;10.17;4.40;;;8.90;1.00;;;;;;4990466;28;20192;-82
2022/11/24 12:27:24;;;;;;;12.43;4.80;;;9.00;6.50;;;;;;4992128;28;20192;-80
2022/11/24 12:30:14;;;;;;;13.23;5.73;;;9.00;2.20;;;;;;4992420;28;20236;-82
2022/11/24 12:33:05;;;;;;;20.03;7.63;;;9.10;9.70;;;;;;4990912;28;20180;-80
2022/11/24 12:35:33;;;;;;;16.80;6.63;;;9.10;1.00;;;;;;4985223;28;20286;-80
2022/11/24 12:37:59;;;;;;;20.37;9.33;;;9.20;1.00;;;;;;4986776;28;20207;-81
2022/11/24 12:40:43;;;;;;;16.47;5.90;;;10.10;7.90;;;;;;4986514;28;20642;-82
2022/11/24 12:43:33;;;;;;;11.40;5.03;;;9.30;1.00;;;;;;4988242;28;20267;-79
2022/11/24 12:46:13;;;;;;;14.53;6.07;;;9.40;10.40;;;;;;4984978;28;20220;-80
2022/11/24 12:48:59;;;;;;;13.80;5.33;;;9.30;1.00;;;;;;4986911;28;20646;-79
2022/11/24 12:51:32;;;;;;;24.40;10.03;;;9.10;1.30;;;;;;4986423;28;20516;-80
2022/11/24 12:54:05;;;;;;;16.33;7.30;;;9.10;1.00;;;;;;4987725;28;20180;-81
2022/11/24 12:56:48;;;;;;;14.27;6.50;;;9.00;1.00;;;;;;5001855;28;20452;-80
2022/11/24 12:59:44;;;;;;;9.57;4.50;;;9.00;3.50;;;;;;4986283;28;20658;-80
2022/11/24 13:02:27;;;;;;;6.23;2.83;;;8.90;13.00;;;;;;4984873;28;20177;-81
2022/11/24 13:05:07;;;;;;;6.53;2.77;;;8.90;8.60;;;;;;4981891;28;20199;-82
2022/11/24 13:07:43;;;;;;;11.00;2.43;;;8.70;2.80;;;;;;4983057;28;20192;-80
2022/11/24 13:10:24;;;;;;;10.27;3.57;;;8.70;11.50;;;;;;4983420;28;20543;-81
2022/11/24 13:13:08;;;;;;;5.70;2.43;;;8.50;23.20;;;;;;4985552;28;20176;-82